Almyra, Arkansas
Current Conditions -  °F | °C
As of 5:15 PM on Monday 22 Dec 2014 (Local Time) from KSGT Reporting Station
Overcast Overcast  
Wind Chill: 13°   Ceiling: 6000
Heat Index: 13°   Visibility: 9mi
Dew Point: 12°   Wind: 8mph
Humidity: 94%   Direction: 160°SSE
Pressure: 29.6"   Gusts: NA
Location:  34.41°N, 91.41°W
Report Text: KSGT 222315Z 16007KT 9SM FEW039 OVC060 13/12 A2960 RMK AO1
Loading
Personal Weather Stations






























Interactive Weather Map New forecast layout! Learn more

10-Day Weather Forecast

Advertisements
Track Severe Weather on mobile